createdAt,value
2022-10-17T00:01:23.429Z,99711.56
2022-10-17T00:03:49.796Z,99705.84
2022-10-17T00:06:16.432Z,99712.06
2022-10-17T00:08:43.996Z,99722.75
2022-10-17T00:11:22.957Z,99713.97
2022-10-17T00:13:51.065Z,99713.34
2022-10-17T00:16:26.986Z,99713.34
2022-10-17T00:18:53.490Z,99713.34
2022-10-17T00:21:20.978Z,99716.19
2022-10-17T00:23:48.080Z,99718.09
2022-10-17T00:26:15.630Z,99730.34
2022-10-17T00:28:42.670Z,99721.69
2022-10-17T00:31:09.053Z,99713.78
2022-10-17T00:33:36.226Z,99720.81
2022-10-17T00:36:05.043Z,99702.53
2022-10-17T00:38:31.563Z,99710.06
2022-10-17T00:40:58.135Z,99708.06
2022-10-17T00:43:24.845Z,99710.38
2022-10-17T00:45:51.250Z,99716.72
2022-10-17T00:48:21.256Z,99708.69
2022-10-17T00:50:50.877Z,99715.53
2022-10-17T00:53:18.623Z,99713.09
2022-10-17T00:55:49.493Z,99720.19
2022-10-17T00:58:17.026Z,99720.81
2022-10-17T01:00:44.155Z,99728.75
2022-10-17T01:03:10.693Z,99716.94
2022-10-17T01:05:38.170Z,99728.84
2022-10-17T01:08:04.814Z,99725.16
2022-10-17T01:10:39.656Z,99731.06
2022-10-17T01:13:13.771Z,99726.25
2022-10-17T01:15:55.310Z,99722.94
2022-10-17T01:18:49.160Z,99725.38
2022-10-17T01:21:38.018Z,99716.22
2022-10-17T01:24:26.170Z,99726.38
2022-10-17T01:27:24.900Z,99713.50
2022-10-17T01:30:28.049Z,99723.63
2022-10-17T01:33:04.327Z,99735.59
2022-10-17T01:35:49.271Z,99733.25
2022-10-17T01:38:20.095Z,99729.25
2022-10-17T01:40:52.709Z,99731.06
2022-10-17T01:43:34.250Z,99730.41
2022-10-17T01:46:24.847Z,99722.69
2022-10-17T01:48:53.537Z,99733.25
2022-10-17T01:51:30.853Z,99730.72
2022-10-17T01:54:02.919Z,99733.16
2022-10-17T01:56:32.726Z,99737.81
2022-10-17T01:59:06.911Z,99738.25
2022-10-17T02:01:35.872Z,99744.25
2022-10-17T02:04:03.357Z,99740.88
2022-10-17T02:06:29.661Z,99729.59
2022-10-17T02:08:55.957Z,99741.28
2022-10-17T02:11:24.700Z,99732.53
2022-10-17T02:14:26.664Z,99740.16
2022-10-17T02:17:04.990Z,99743.50
2022-10-17T02:19:46.291Z,99742.16
2022-10-17T02:22:27.433Z,99742.06
2022-10-17T02:25:14.304Z,99739.91
2022-10-17T02:27:55.118Z,99739.81
2022-10-17T02:30:59.722Z,99751.56
2022-10-17T02:33:34.465Z,99745.63
2022-10-17T02:36:09.085Z,99737.06
2022-10-17T02:38:35.641Z,99736.25
2022-10-17T02:41:03.492Z,99746.06
2022-10-17T02:43:30.242Z,99744.69
2022-10-17T02:45:57.267Z,99757.16
2022-10-17T02:48:41.911Z,99749.53
2022-10-17T02:51:20.743Z,99751.25
2022-10-17T02:53:55.530Z,99743.22
2022-10-17T02:56:22.403Z,99750.00
2022-10-17T02:58:54.472Z,99734.97
2022-10-17T03:01:22.116Z,99752.50
2022-10-17T03:03:48.576Z,99742.97
2022-10-17T03:06:15.682Z,99750.81
2022-10-17T03:08:42.217Z,99754.63
2022-10-17T03:11:08.538Z,99758.97
2022-10-17T03:13:37.580Z,99755.16
2022-10-17T03:16:06.271Z,99754.50
2022-10-17T03:18:32.820Z,99769.13
2022-10-17T03:20:59.204Z,99765.53
2022-10-17T03:23:25.523Z,99755.38
2022-10-17T03:25:51.813Z,99762.44
2022-10-17T03:28:18.207Z,99768.91
2022-10-17T03:30:44.811Z,99755.03
2022-10-17T03:33:11.187Z,99760.53
2022-10-17T03:35:39.544Z,99767.50
2022-10-17T03:38:05.928Z,99761.47
2022-10-17T03:40:32.317Z,99759.59
2022-10-17T03:42:58.654Z,99765.41
2022-10-17T03:45:25.253Z,99758.75
2022-10-17T03:47:51.686Z,99762.13
2022-10-17T03:50:18.063Z,99760.72
2022-10-17T03:52:48.218Z,99760.84
2022-10-17T03:55:15.236Z,99763.88
2022-10-17T03:57:43.418Z,99752.00
2022-10-17T04:00:12.860Z,99761.72
2022-10-17T04:02:39.535Z,99760.91
2022-10-17T04:05:06.464Z,99759.72
2022-10-17T04:07:32.775Z,99764.28
2022-10-17T04:09:59.186Z,99766.41
2022-10-17T04:12:25.543Z,99770.19
2022-10-17T04:14:51.958Z,99769.34
2022-10-17T04:17:18.428Z,99768.50
2022-10-17T04:19:44.734Z,99757.94
2022-10-17T04:22:11.110Z,99763.03
2022-10-17T04:24:37.479Z,99764.81
2022-10-17T04:27:03.936Z,99762.38
2022-10-17T04:29:30.274Z,99771.25
2022-10-17T04:31:56.571Z,99764.38
2022-10-17T04:34:23.010Z,99776.97
2022-10-17T04:36:49.322Z,99777.38
2022-10-17T04:39:15.702Z,99777.69
2022-10-17T04:41:42.131Z,99779.50
2022-10-17T04:44:09.726Z,99773.91
2022-10-17T04:46:36.104Z,99767.75
2022-10-17T04:49:02.872Z,99780.75
2022-10-17T04:51:29.179Z,99780.97
2022-10-17T04:53:55.729Z,99783.81
2022-10-17T04:56:24.968Z,99782.13
2022-10-17T04:58:52.113Z,99791.00
2022-10-17T05:01:21.221Z,99791.81
2022-10-17T05:03:48.078Z,99790.47
2022-10-17T05:06:23.199Z,99793.13
2022-10-17T05:08:50.126Z,99802.00
2022-10-17T05:11:17.996Z,99803.69
2022-10-17T05:13:44.645Z,99808.97
2022-10-17T05:16:11.021Z,99802.00
2022-10-17T05:18:37.409Z,99792.09
2022-10-17T05:21:04.206Z,99803.84
2022-10-17T05:23:30.621Z,99807.97
2022-10-17T05:25:57.050Z,99801.75
2022-10-17T05:28:23.812Z,99806.63
2022-10-17T05:30:50.223Z,99803.47
2022-10-17T05:33:16.845Z,99811.91
2022-10-17T05:35:43.297Z,99806.63
2022-10-17T05:38:09.681Z,99805.59
2022-10-17T05:40:36.219Z,99808.88
2022-10-17T05:43:02.924Z,99804.22
2022-10-17T05:45:29.297Z,99806.66
2022-10-17T05:47:56.076Z,99799.69
2022-10-17T05:50:22.371Z,99809.72
2022-10-17T05:52:53.179Z,99797.44
2022-10-17T05:55:19.518Z,99799.97
2022-10-17T05:57:46.172Z,99799.16
2022-10-17T06:00:13.754Z,99795.97
2022-10-17T06:02:40.139Z,99783.31
2022-10-17T06:05:06.633Z,99805.38
2022-10-17T06:07:33.014Z,99805.59
2022-10-17T06:09:59.306Z,99814.16
2022-10-17T06:12:25.599Z,99830.13
2022-10-17T06:14:51.961Z,99829.31
2022-10-17T06:17:18.255Z,99832.56
2022-10-17T06:19:45.005Z,99838.38
2022-10-17T06:22:11.865Z,99834.13
2022-10-17T06:24:38.187Z,99836.88
2022-10-17T06:27:09.345Z,99833.50
2022-10-17T06:29:38.502Z,99834.78
2022-10-17T06:32:05.309Z,99835.47
2022-10-17T06:34:31.687Z,99835.94
2022-10-17T06:36:57.975Z,99851.31
2022-10-17T06:39:24.416Z,99834.03
2022-10-17T06:41:50.721Z,99842.84
2022-10-17T06:44:17.106Z,99833.28
2022-10-17T06:46:43.395Z,99842.47
2022-10-17T06:49:10.480Z,99848.63
2022-10-17T06:51:37.512Z,99854.97
2022-10-17T06:54:03.973Z,99860.16
2022-10-17T06:56:30.455Z,99859.22
2022-10-17T06:58:56.804Z,99863.78
2022-10-17T07:01:23.365Z,99868.84
2022-10-17T07:03:49.911Z,99872.84
2022-10-17T07:06:16.358Z,99872.41
2022-10-17T07:08:43.602Z,99871.50
2022-10-17T07:11:18.387Z,99872.63
2022-10-17T07:13:45.352Z,99872.59
2022-10-17T07:16:13.864Z,99851.41
2022-10-17T07:18:41.120Z,99862.53
2022-10-17T07:21:08.004Z,99851.47
2022-10-17T07:23:35.674Z,99862.59
2022-10-17T07:26:04.418Z,99851.88
2022-10-17T07:28:30.721Z,99871.25
2022-10-17T07:31:03.610Z,99863.19
2022-10-17T07:33:29.929Z,99871.19
2022-10-17T07:35:59.241Z,99868.91
2022-10-17T07:38:26.172Z,99873.00
2022-10-17T07:41:00.495Z,99884.97
2022-10-17T07:43:27.915Z,99861.28
2022-10-17T07:45:55.054Z,99872.63
2022-10-17T07:48:23.180Z,99870.59
2022-10-17T07:50:50.209Z,99871.97
2022-10-17T07:53:17.753Z,99867.03
2022-10-17T07:55:44.763Z,99873.09
2022-10-17T07:58:11.149Z,99872.78
2022-10-17T08:00:37.630Z,99869.16
2022-10-17T08:03:04.921Z,99870.47
2022-10-17T08:05:32.138Z,99872.50
2022-10-17T08:07:58.883Z,99877.22
2022-10-17T08:10:25.643Z,99871.78
2022-10-17T08:12:51.977Z,99864.19
2022-10-17T08:15:18.390Z,99871.34
2022-10-17T08:17:44.708Z,99863.09
2022-10-17T08:20:11.496Z,99863.75
2022-10-17T08:22:38.113Z,99860.38
2022-10-17T08:25:05.043Z,99870.22
2022-10-17T08:27:33.319Z,99868.13
2022-10-17T08:29:59.846Z,99868.50
2022-10-17T08:32:28.444Z,99865.28
2022-10-17T08:34:56.163Z,99866.78
2022-10-17T08:37:23.412Z,99869.94
2022-10-17T08:39:50.084Z,99867.94
2022-10-17T08:43:04.322Z,99867.22
2022-10-17T08:45:55.862Z,99869.16
2022-10-17T08:48:25.712Z,99870.97
2022-10-17T08:51:04.279Z,99878.22
2022-10-17T08:53:37.808Z,99869.00
2022-10-17T08:56:19.621Z,99863.81
2022-10-17T08:58:51.554Z,99851.84
2022-10-17T09:01:37.949Z,99855.91
2022-10-17T09:04:23.034Z,99855.50
2022-10-17T09:07:01.674Z,99855.44
2022-10-17T09:09:33.946Z,99852.56
2022-10-17T09:12:06.294Z,99843.50
2022-10-17T09:14:51.536Z,99843.53
2022-10-17T09:17:45.982Z,99839.81
2022-10-17T09:20:17.963Z,99840.25
2022-10-17T09:22:58.819Z,99845.22
2022-10-17T09:25:27.411Z,99840.28
2022-10-17T09:28:18.246Z,99842.78
2022-10-17T09:30:47.733Z,99831.16
2022-10-17T09:33:34.746Z,99843.13
2022-10-17T09:36:10.796Z,99834.91
2022-10-17T09:38:51.104Z,99835.06
2022-10-17T09:41:44.074Z,99830.59
2022-10-17T09:44:22.078Z,99836.94
2022-10-17T09:47:07.187Z,99835.13
2022-10-17T09:49:36.487Z,99832.50
2022-10-17T09:52:04.999Z,99828.34
2022-10-17T09:54:48.580Z,99829.38
2022-10-17T09:57:17.930Z,99837.38
2022-10-17T09:59:47.801Z,99829.06
2022-10-17T10:02:20.372Z,99832.78
2022-10-17T10:05:15.857Z,99841.63
2022-10-17T10:07:46.034Z,99819.41
2022-10-17T10:10:28.519Z,99836.06
2022-10-17T10:13:15.977Z,99833.38
2022-10-17T10:15:45.384Z,99832.00
2022-10-17T10:21:09.531Z,99852.75
2022-10-17T10:23:38.187Z,99850.50
2022-10-17T10:26:21.216Z,99854.50
2022-10-17T10:29:05.686Z,99853.81
2022-10-17T10:31:38.758Z,99860.34
2022-10-17T10:34:26.888Z,99861.72
2022-10-17T10:36:59.131Z,99863.88
2022-10-17T10:39:34.688Z,99860.38
2022-10-17T10:42:03.337Z,99859.72
2022-10-17T10:44:31.991Z,99853.81
2022-10-17T10:47:15.584Z,99864.38
2022-10-17T10:49:42.343Z,99871.59
2022-10-17T10:52:15.392Z,99855.00
2022-10-17T10:54:51.245Z,99848.94
2022-10-17T10:57:23.944Z,99856.34
2022-10-17T10:59:59.390Z,99854.16
2022-10-17T11:02:37.418Z,99851.31
2022-10-17T11:05:21.893Z,99849.97
2022-10-17T11:07:59.874Z,99856.53
2022-10-17T11:10:59.324Z,99867.97
2022-10-17T11:13:31.584Z,99861.22
2022-10-17T11:16:18.496Z,99844.69
2022-10-17T11:18:50.700Z,99850.63
2022-10-17T11:21:28.123Z,99857.63
2022-10-17T11:24:00.487Z,99848.69
2022-10-17T11:26:35.157Z,99848.91
2022-10-17T11:29:05.543Z,99832.75
2022-10-17T11:31:36.576Z,99839.16
2022-10-17T11:34:25.509Z,99836.13
2022-10-17T11:36:57.139Z,99851.59
2022-10-17T11:39:34.718Z,99844.72
2022-10-17T11:42:07.153Z,99838.44
2022-10-17T11:44:39.176Z,99848.09
2022-10-17T11:47:28.527Z,99857.97
2022-10-17T11:53:05.101Z,99846.13
2022-10-17T11:55:32.275Z,99838.06
2022-10-17T11:58:32.997Z,99847.78
2022-10-17T12:01:06.031Z,99847.25
2022-10-17T12:03:44.500Z,99844.25
2022-10-17T12:06:37.141Z,99839.16
2022-10-17T12:09:23.531Z,99835.97
2022-10-17T12:11:55.222Z,99831.41
2022-10-17T12:14:47.516Z,99832.91
2022-10-17T12:17:32.446Z,99832.13
2022-10-17T12:20:21.591Z,99836.44
2022-10-17T12:22:51.374Z,99828.31
2022-10-17T12:25:31.481Z,99838.66
2022-10-17T12:28:14.150Z,99829.97
2022-10-17T12:30:56.935Z,99839.47
2022-10-17T12:33:32.489Z,99836.19
2022-10-17T12:36:17.471Z,99831.81
2022-10-17T12:38:49.199Z,99832.00
2022-10-17T12:41:36.959Z,99837.34
2022-10-17T12:44:26.065Z,99838.06
2022-10-17T12:47:04.402Z,99829.84
2022-10-17T12:49:53.102Z,99837.69
2022-10-17T12:52:46.734Z,99839.41
2022-10-17T12:55:20.095Z,99834.63
2022-10-17T12:58:06.913Z,99830.13
2022-10-17T13:01:18.936Z,99834.00
2022-10-17T13:03:48.640Z,99835.94
2022-10-17T13:06:23.488Z,99841.38
2022-10-17T13:09:16.505Z,99831.03
2022-10-17T13:11:43.128Z,99843.16
2022-10-17T13:14:13.131Z,99853.09
2022-10-17T13:16:56.141Z,99850.97
2022-10-17T13:19:29.573Z,99841.47
2022-10-17T13:22:01.050Z,99845.91
2022-10-17T13:24:33.062Z,99848.16
2022-10-17T13:27:00.594Z,99849.38
2022-10-17T13:29:28.428Z,99838.69
2022-10-17T13:31:58.497Z,99841.28
2022-10-17T13:34:25.939Z,99841.25
2022-10-17T13:36:58.139Z,99841.66
2022-10-17T13:39:44.740Z,99851.41
2022-10-17T13:42:39.095Z,99839.97
2022-10-17T13:45:18.251Z,99847.41
2022-10-17T13:47:45.764Z,99842.13
2022-10-17T13:50:43.086Z,99851.31
2022-10-17T13:53:24.986Z,99855.13
2022-10-17T13:56:22.911Z,99858.94
2022-10-17T13:58:48.530Z,99840.16
2022-10-17T14:01:15.732Z,99852.50
2022-10-17T14:03:48.507Z,99841.75
2022-10-17T14:06:18.767Z,99838.84
2022-10-17T14:08:56.358Z,99844.16
2022-10-17T14:11:27.271Z,99849.47
2022-10-17T14:13:55.704Z,99846.97
2022-10-17T14:16:23.894Z,99848.00
2022-10-17T14:18:51.800Z,99858.34
2022-10-17T14:21:43.880Z,99857.09
2022-10-17T14:24:28.645Z,99854.31
2022-10-17T14:26:57.603Z,99847.72
2022-10-17T14:29:26.997Z,99864.44
2022-10-17T14:32:02.606Z,99850.59
2022-10-17T14:37:32.115Z,99856.38
2022-10-17T14:40:01.026Z,99866.16
2022-10-17T14:42:27.721Z,99862.53
2022-10-17T14:44:56.897Z,99855.41
2022-10-17T14:47:42.583Z,99867.88
2022-10-17T14:50:12.398Z,99865.16
2022-10-17T14:52:39.127Z,99856.56
2022-10-17T14:55:26.674Z,99855.66
2022-10-17T14:57:53.187Z,99858.34
2022-10-17T15:00:21.031Z,99855.09
2022-10-17T15:02:48.934Z,99860.13
2022-10-17T15:05:16.281Z,99874.31
2022-10-17T15:07:43.215Z,99864.22
2022-10-17T15:10:36.527Z,99879.69
2022-10-17T15:13:26.544Z,99874.91
2022-10-17T15:15:50.428Z,99882.03
2022-10-17T15:18:16.849Z,99880.38
2022-10-17T15:20:43.148Z,99884.31
2022-10-17T15:23:09.786Z,99893.94
2022-10-17T15:25:36.504Z,99872.31
2022-10-17T15:28:02.830Z,99890.34
2022-10-17T15:30:32.388Z,99894.84
2022-10-17T15:32:59.780Z,99901.44
2022-10-17T15:35:27.878Z,99894.31
2022-10-17T15:37:55.089Z,99895.41
2022-10-17T15:40:24.473Z,99893.84
2022-10-17T15:42:51.900Z,99896.72
2022-10-17T15:45:19.963Z,99892.38
2022-10-17T15:47:52.174Z,99886.38
2022-10-17T15:50:18.860Z,99897.25
2022-10-17T15:52:45.163Z,99890.25
2022-10-17T15:55:11.451Z,99896.13
2022-10-17T15:57:42.478Z,99901.19
2022-10-17T16:00:21.124Z,99906.84
2022-10-17T16:02:48.234Z,99915.75
2022-10-17T16:05:20.566Z,99921.25
2022-10-17T16:07:46.906Z,99926.78
2022-10-17T16:10:14.742Z,99926.25
2022-10-17T16:12:41.342Z,99937.06
2022-10-17T16:15:15.484Z,99940.88
2022-10-17T16:17:41.920Z,99944.41
2022-10-17T16:20:09.567Z,99942.28
2022-10-17T16:22:35.937Z,99945.91
2022-10-17T16:25:05.083Z,99938.09
2022-10-17T16:27:31.513Z,99938.09
2022-10-17T16:29:58.184Z,99952.16
2022-10-17T16:32:24.632Z,99963.13
2022-10-17T16:34:51.050Z,99964.13
2022-10-17T16:37:17.386Z,99971.31
2022-10-17T16:39:44.071Z,99968.00
2022-10-17T16:42:10.398Z,99972.75
2022-10-17T16:44:36.980Z,99981.31
2022-10-17T16:47:03.337Z,99987.03
2022-10-17T16:49:29.619Z,99989.69
2022-10-17T16:51:56.669Z,99991.44
2022-10-17T16:54:23.083Z,100005.75
2022-10-17T16:56:49.372Z,100008.59
2022-10-17T16:59:15.688Z,100012.19
2022-10-17T17:01:42.162Z,100018.31
2022-10-17T17:04:08.497Z,100005.06
2022-10-17T17:06:35.210Z,100008.69
2022-10-17T17:09:01.623Z,100014.94
2022-10-17T17:11:28.639Z,100020.78
2022-10-17T17:13:57.066Z,100018.75
2022-10-17T17:16:25.248Z,100015.84
2022-10-17T17:19:00.638Z,100024.47
2022-10-17T17:21:27.334Z,100017.47
2022-10-17T17:23:55.054Z,100022.25
2022-10-17T17:26:22.927Z,100022.44
2022-10-17T17:28:50.389Z,100019.84
2022-10-17T17:31:20.006Z,100021.78
2022-10-17T17:33:47.212Z,100029.34
2022-10-17T17:36:20.172Z,100032.75
2022-10-17T17:38:47.971Z,100035.75
2022-10-17T17:41:17.191Z,100045.56
2022-10-17T17:43:47.094Z,100052.06
2022-10-17T17:46:15.461Z,100052.22
2022-10-17T17:48:43.136Z,100049.09
2022-10-17T17:51:12.630Z,100054.31
2022-10-17T17:53:39.964Z,100062.88
2022-10-17T17:56:11.996Z,100066.66
2022-10-17T17:58:41.041Z,100055.72
2022-10-17T18:01:18.156Z,100055.91
2022-10-17T18:03:45.291Z,100069.81
2022-10-17T18:06:15.436Z,100070.22
2022-10-17T18:08:45.488Z,100072.00
2022-10-17T18:11:12.406Z,100082.09
2022-10-17T18:13:38.732Z,100075.31
2022-10-17T18:16:06.385Z,100079.50
2022-10-17T18:18:33.100Z,100080.44
2022-10-17T18:21:01.429Z,100083.78
2022-10-17T18:23:27.727Z,100080.94
2022-10-17T18:26:01.170Z,100089.84
2022-10-17T18:28:27.791Z,100086.38
2022-10-17T18:30:54.616Z,100087.59
2022-10-17T18:33:21.507Z,100093.44
2022-10-17T18:35:47.805Z,100092.28
2022-10-17T18:38:14.171Z,100097.72
2022-10-17T18:40:40.671Z,100095.19
2022-10-17T18:43:07.617Z,100092.34
2022-10-17T18:45:33.936Z,100091.88
2022-10-17T18:48:00.312Z,100090.97
2022-10-17T18:50:27.434Z,100097.97
2022-10-17T18:52:53.926Z,100100.03
2022-10-17T18:55:20.305Z,100092.22
2022-10-17T18:57:48.071Z,100108.19
2022-10-17T19:00:15.310Z,100088.88
2022-10-17T19:02:41.706Z,100103.28
2022-10-17T19:05:09.006Z,100106.06
2022-10-17T19:07:35.546Z,100111.38
2022-10-17T19:10:01.843Z,100105.47
2022-10-17T19:12:28.981Z,100106.56
2022-10-17T19:14:55.480Z,100111.41
2022-10-17T19:17:21.867Z,100117.81
2022-10-17T19:19:48.195Z,100110.47
2022-10-17T19:22:14.608Z,100116.84
2022-10-17T19:24:41.064Z,100116.03
2022-10-17T19:27:07.713Z,100119.06
2022-10-17T19:29:34.199Z,100117.47
2022-10-17T19:32:01.017Z,100111.69
2022-10-17T19:37:18.102Z,100123.75
2022-10-17T19:39:44.515Z,100131.50
2022-10-17T19:42:10.870Z,100130.88
2022-10-17T19:44:37.388Z,100131.63
2022-10-17T19:47:03.883Z,100122.19
2022-10-17T19:49:30.253Z,100133.53
2022-10-17T19:51:56.552Z,100129.56
2022-10-17T19:54:22.927Z,100132.09
2022-10-17T19:56:49.318Z,100124.94
2022-10-17T19:59:16.971Z,100133.66
2022-10-17T20:01:43.937Z,100130.25
2022-10-17T20:04:11.531Z,100128.72
2022-10-17T20:06:39.196Z,100136.56
2022-10-17T20:09:07.383Z,100139.34
2022-10-17T20:11:35.160Z,100129.53
2022-10-17T20:14:01.613Z,100142.84
2022-10-17T20:16:31.325Z,100140.66
2022-10-17T20:19:04.011Z,100132.44
2022-10-17T20:21:30.737Z,100137.75
2022-10-17T20:23:59.238Z,100134.63
2022-10-17T20:26:37.495Z,100132.31
2022-10-17T20:29:08.395Z,100126.53
2022-10-17T20:31:34.883Z,100149.25
2022-10-17T20:34:01.175Z,100145.00
2022-10-17T20:36:27.462Z,100143.94
2022-10-17T20:38:58.015Z,100157.59
2022-10-17T20:41:26.021Z,100157.13
2022-10-17T20:43:54.181Z,100155.41
2022-10-17T20:46:35.894Z,100158.56
2022-10-17T20:49:05.117Z,100157.47
2022-10-17T20:51:31.749Z,100159.50
2022-10-17T20:53:58.142Z,100152.63
2022-10-17T20:56:28.267Z,100158.78
2022-10-17T20:58:58.038Z,100160.09
2022-10-17T21:01:26.089Z,100156.59
2022-10-17T21:03:52.783Z,100158.03
2022-10-17T21:06:21.793Z,100159.13
2022-10-17T21:08:48.765Z,100151.97
2022-10-17T21:11:23.568Z,100155.06
2022-10-17T21:13:58.783Z,100169.06
2022-10-17T21:16:26.107Z,100162.91
2022-10-17T21:18:53.005Z,100164.09
2022-10-17T21:21:25.021Z,100162.47
2022-10-17T21:23:51.379Z,100161.94
2022-10-17T21:26:18.353Z,100161.91
2022-10-17T21:28:46.542Z,100160.56
2022-10-17T21:31:18.538Z,100170.34
2022-10-17T21:33:49.952Z,100166.94
2022-10-17T21:36:17.593Z,100174.91
2022-10-17T21:38:45.706Z,100147.59
2022-10-17T21:41:13.277Z,100159.06
2022-10-17T21:43:40.283Z,100166.31
2022-10-17T21:46:12.526Z,100163.06
2022-10-17T21:48:39.492Z,100167.16
2022-10-17T21:51:08.896Z,100167.28
2022-10-17T21:53:36.783Z,100167.16
2022-10-17T21:56:05.790Z,100160.28
2022-10-17T21:58:33.134Z,100156.41
2022-10-17T22:01:08.350Z,100168.75
2022-10-17T22:03:42.702Z,100167.03
2022-10-17T22:09:00.634Z,100172.59
2022-10-17T22:11:30.836Z,100159.88
2022-10-17T22:13:59.963Z,100171.97
2022-10-17T22:16:26.746Z,100173.78
2022-10-17T22:19:00.521Z,100173.16
2022-10-17T22:21:29.719Z,100169.66
2022-10-17T22:23:59.383Z,100168.81
2022-10-17T22:26:27.947Z,100174.13
2022-10-17T22:28:54.510Z,100167.13
2022-10-17T22:31:21.615Z,100176.03
2022-10-17T22:33:48.108Z,100173.63
2022-10-17T22:36:14.444Z,100184.88
2022-10-17T22:38:40.901Z,100180.63
2022-10-17T22:41:08.124Z,100189.19
2022-10-17T22:43:34.832Z,100181.34
2022-10-17T22:46:03.615Z,100185.81
2022-10-17T22:48:30.385Z,100182.34
2022-10-17T22:50:58.691Z,100178.91
2022-10-17T22:53:25.923Z,100185.00
2022-10-17T22:56:09.744Z,100173.72
2022-10-17T22:58:36.414Z,100184.34
2022-10-17T23:01:04.669Z,100180.03
2022-10-17T23:03:31.665Z,100181.09
2022-10-17T23:05:58.441Z,100173.44
2022-10-17T23:08:25.433Z,100181.81
2022-10-17T23:10:52.072Z,100185.81
2022-10-17T23:13:18.476Z,100176.72
2022-10-17T23:15:44.804Z,100175.78
2022-10-17T23:18:11.361Z,100169.50
2022-10-17T23:20:38.027Z,100166.22
2022-10-17T23:23:05.314Z,100180.13
2022-10-17T23:25:34.553Z,100176.50
2022-10-17T23:28:01.739Z,100164.53
2022-10-17T23:30:28.462Z,100179.16
2022-10-17T23:32:54.822Z,100175.66
2022-10-17T23:35:21.448Z,100174.94
2022-10-17T23:37:47.825Z,100175.66
2022-10-17T23:40:14.304Z,100177.38
2022-10-17T23:42:40.678Z,100171.53
2022-10-17T23:45:07.872Z,100180.59
2022-10-17T23:47:34.387Z,100174.28
2022-10-17T23:50:00.799Z,100178.88
2022-10-17T23:52:27.131Z,100182.47
2022-10-17T23:54:53.804Z,100174.28
2022-10-17T23:57:20.265Z,100183.63
2022-10-17T23:59:46.561Z,100172.63
